sensor_id;sensor_type;location;lat;lon;timestamp;pressure;altitude;pressure_sealevel;temperature;humidity
23261;BME280;11799;47.740;-3.390;2023-05-25T00:01:33;102286.25;;;14.12;100.00
23261;BME280;11799;47.740;-3.390;2023-05-25T00:04:00;102280.31;;;14.09;100.00
23261;BME280;11799;47.740;-3.390;2023-05-25T00:06:28;102278.81;;;14.05;100.00
23261;BME280;11799;47.740;-3.390;2023-05-25T00:08:55;102275.44;;;14.03;100.00
23261;BME280;11799;47.740;-3.390;2023-05-25T00:11:25;102282.00;;;13.97;100.00
23261;BME280;11799;47.740;-3.390;2023-05-25T00:13:51;102275.84;;;13.97;100.00
23261;BME280;11799;47.740;-3.390;2023-05-25T00:16:16;102277.13;;;13.91;100.00
23261;BME280;11799;47.740;-3.390;2023-05-25T00:18:42;102276.25;;;13.91;100.00
23261;BME280;11799;47.740;-3.390;2023-05-25T00:21:08;102270.66;;;13.82;100.00
23261;BME280;11799;47.740;-3.390;2023-05-25T00:23:35;102268.84;;;13.83;100.00
23261;BME280;11799;47.740;-3.390;2023-05-25T00:26:02;102275.22;;;13.80;100.00
23261;BME280;11799;47.740;-3.390;2023-05-25T00:28:27;102270.88;;;13.79;100.00
23261;BME280;11799;47.740;-3.390;2023-05-25T00:30:53;102276.28;;;13.78;100.00
23261;BME280;11799;47.740;-3.390;2023-05-25T00:33:19;102273.00;;;13.74;100.00
23261;BME280;11799;47.740;-3.390;2023-05-25T00:35:44;102266.81;;;13.74;100.00
23261;BME280;11799;47.740;-3.390;2023-05-25T00:38:15;102266.38;;;13.67;100.00
23261;BME280;11799;47.740;-3.390;2023-05-25T00:40:42;102264.91;;;13.63;100.00
23261;BME280;11799;47.740;-3.390;2023-05-25T00:43:08;102264.91;;;13.63;100.00
23261;BME280;11799;47.740;-3.390;2023-05-25T00:45:34;102265.09;;;13.60;100.00
23261;BME280;11799;47.740;-3.390;2023-05-25T00:48:00;102272.22;;;13.60;100.00
23261;BME280;11799;47.740;-3.390;2023-05-25T00:50:44;102267.41;;;13.52;100.00
23261;BME280;11799;47.740;-3.390;2023-05-25T00:53:12;102271.13;;;13.49;100.00
23261;BME280;11799;47.740;-3.390;2023-05-25T00:55:47;102263.56;;;13.43;100.00
23261;BME280;11799;47.740;-3.390;2023-05-25T00:58:15;102273.25;;;13.44;100.00
23261;BME280;11799;47.740;-3.390;2023-05-25T01:00:44;102274.19;;;13.43;100.00
23261;BME280;11799;47.740;-3.390;2023-05-25T01:03:13;102275.34;;;13.39;100.00
23261;BME280;11799;47.740;-3.390;2023-05-25T01:05:44;102272.03;;;13.36;100.00
23261;BME280;11799;47.740;-3.390;2023-05-25T01:08:13;102275.75;;;13.33;100.00
23261;BME280;11799;47.740;-3.390;2023-05-25T01:10:40;102268.22;;;13.27;100.00
23261;BME280;11799;47.740;-3.390;2023-05-25T01:13:08;102272.69;;;13.27;100.00
23261;BME280;11799;47.740;-3.390;2023-05-25T01:15:38;102269.19;;;13.26;100.00
23261;BME280;11799;47.740;-3.390;2023-05-25T01:18:04;102274.50;;;13.26;100.00
23261;BME280;11799;47.740;-3.390;2023-05-25T01:20:30;102269.19;;;13.26;100.00
23261;BME280;11799;47.740;-3.390;2023-05-25T01:23:04;102268.72;;;13.19;100.00
23261;BME280;11799;47.740;-3.390;2023-05-25T01:25:36;102265.13;;;13.20;100.00
23261;BME280;11799;47.740;-3.390;2023-05-25T01:28:17;102268.72;;;13.19;100.00
23261;BME280;11799;47.740;-3.390;2023-05-25T01:30:47;102265.31;;;13.17;100.00
23261;BME280;11799;47.740;-3.390;2023-05-25T01:33:15;102263.69;;;13.15;100.00
23261;BME280;11799;47.740;-3.390;2023-05-25T01:35:43;102256.78;;;13.12;100.00
23261;BME280;11799;47.740;-3.390;2023-05-25T01:38:09;102267.41;;;13.12;100.00
23261;BME280;11799;47.740;-3.390;2023-05-25T01:40:38;102260.19;;;13.14;100.00
23261;BME280;11799;47.740;-3.390;2023-05-25T01:43:04;102269.19;;;13.12;100.00
23261;BME280;11799;47.740;-3.390;2023-05-25T01:45:31;102265.69;;;13.11;100.00
23261;BME280;11799;47.740;-3.390;2023-05-25T01:48:05;102266.84;;;13.07;100.00
23261;BME280;11799;47.740;-3.390;2023-05-25T01:53:18;102272.56;;;13.01;100.00
23261;BME280;11799;47.740;-3.390;2023-05-25T01:55:57;102259.28;;;13.01;100.00
23261;BME280;11799;47.740;-3.390;2023-05-25T01:58:25;102266.28;;;13.02;100.00
23261;BME280;11799;47.740;-3.390;2023-05-25T02:00:52;102266.50;;;12.99;100.00
23261;BME280;11799;47.740;-3.390;2023-05-25T02:03:18;102275.50;;;12.97;100.00
23261;BME280;11799;47.740;-3.390;2023-05-25T02:05:47;102268.78;;;12.91;100.00
23261;BME280;11799;47.740;-3.390;2023-05-25T02:08:13;102277.59;;;12.92;100.00
23261;BME280;11799;47.740;-3.390;2023-05-25T02:10:38;102277.59;;;12.92;100.00
23261;BME280;11799;47.740;-3.390;2023-05-25T02:13:04;102284.78;;;12.89;100.00
23261;BME280;11799;47.740;-3.390;2023-05-25T02:15:31;102272.59;;;12.87;100.00
23261;BME280;11799;47.740;-3.390;2023-05-25T02:17:57;102284.03;;;12.87;100.00
23261;BME280;11799;47.740;-3.390;2023-05-25T02:20:27;102278.94;;;12.84;100.00
23261;BME280;11799;47.740;-3.390;2023-05-25T02:22:52;102279.22;;;12.80;100.00
23261;BME280;11799;47.740;-3.390;2023-05-25T02:25:18;102286.97;;;12.83;100.00
23261;BME280;11799;47.740;-3.390;2023-05-25T02:27:44;102287.84;;;12.83;100.00
23261;BME280;11799;47.740;-3.390;2023-05-25T02:30:10;102285.19;;;12.83;100.00
23261;BME280;11799;47.740;-3.390;2023-05-25T02:32:35;102292.38;;;12.81;100.00
23261;BME280;11799;47.740;-3.390;2023-05-25T02:35:02;102288.88;;;12.81;100.00
23261;BME280;11799;47.740;-3.390;2023-05-25T02:37:28;102281.03;;;12.79;100.00
23261;BME280;11799;47.740;-3.390;2023-05-25T02:39:53;102289.19;;;12.76;100.00
23261;BME280;11799;47.740;-3.390;2023-05-25T02:42:19;102282.06;;;12.77;100.00
23261;BME280;11799;47.740;-3.390;2023-05-25T02:44:46;102285.69;;;12.76;100.00
23261;BME280;11799;47.740;-3.390;2023-05-25T02:47:14;102281.66;;;12.70;100.00
23261;BME280;11799;47.740;-3.390;2023-05-25T02:49:40;102280.56;;;12.73;100.00
23261;BME280;11799;47.740;-3.390;2023-05-25T02:52:05;102285.16;;;12.71;100.00
23261;BME280;11799;47.740;-3.390;2023-05-25T02:54:31;102279.72;;;12.72;100.00
23261;BME280;11799;47.740;-3.390;2023-05-25T02:56:56;102281.75;;;12.69;100.00
23261;BME280;11799;47.740;-3.390;2023-05-25T02:59:22;102279.72;;;12.72;100.00
23261;BME280;11799;47.740;-3.390;2023-05-25T03:01:49;102285.25;;;12.69;100.00
23261;BME280;11799;47.740;-3.390;2023-05-25T03:04:15;102279.84;;;12.71;100.00
23261;BME280;11799;47.740;-3.390;2023-05-25T03:06:41;102266.31;;;12.61;100.00
23261;BME280;11799;47.740;-3.390;2023-05-25T03:09:11;102278.25;;;12.68;100.00
23261;BME280;11799;47.740;-3.390;2023-05-25T03:11:38;102276.44;;;12.69;100.00
23261;BME280;11799;47.740;-3.390;2023-05-25T03:14:04;102274.63;;;12.69;100.00
23261;BME280;11799;47.740;-3.390;2023-05-25T03:16:31;102280.13;;;12.66;100.00
23261;BME280;11799;47.740;-3.390;2023-05-25T03:19:02;102272.47;;;12.62;100.00
23261;BME280;11799;47.740;-3.390;2023-05-25T03:21:30;102272.56;;;12.60;100.00
23261;BME280;11799;47.740;-3.390;2023-05-25T03:23:55;102269.06;;;12.60;100.00
23261;BME280;11799;47.740;-3.390;2023-05-25T03:26:21;102273.50;;;12.59;100.00
23261;BME280;11799;47.740;-3.390;2023-05-25T03:28:48;102269.25;;;12.56;100.00
23261;BME280;11799;47.740;-3.390;2023-05-25T03:31:13;102273.81;;;12.54;100.00
23261;BME280;11799;47.740;-3.390;2023-05-25T03:33:39;102270.31;;;12.54;100.00
23261;BME280;11799;47.740;-3.390;2023-05-25T03:36:06;102269.56;;;12.52;100.00
23261;BME280;11799;47.740;-3.390;2023-05-25T03:38:33;102265.19;;;12.51;100.00
23261;BME280;11799;47.740;-3.390;2023-05-25T03:40:59;102273.25;;;12.49;100.00
23261;BME280;11799;47.740;-3.390;2023-05-25T03:43:25;102268.97;;;12.47;100.00
23261;BME280;11799;47.740;-3.390;2023-05-25T03:45:52;102269.84;;;12.47;100.00
23261;BME280;11799;47.740;-3.390;2023-05-25T03:48:17;102261.97;;;12.46;100.00
23261;BME280;11799;47.740;-3.390;2023-05-25T03:50:43;102260.94;;;12.48;100.00
23261;BME280;11799;47.740;-3.390;2023-05-25T03:53:08;102261.13;;;12.45;100.00
23261;BME280;11799;47.740;-3.390;2023-05-25T03:55:34;102253.84;;;12.49;100.00
23261;BME280;11799;47.740;-3.390;2023-05-25T03:57:59;102269.19;;;12.44;100.00
23261;BME280;11799;47.740;-3.390;2023-05-25T04:00:25;102266.63;;;12.42;100.00
23261;BME280;11799;47.740;-3.390;2023-05-25T04:02:50;102265.78;;;12.42;100.00
23261;BME280;11799;47.740;-3.390;2023-05-25T04:05:16;102264.91;;;12.41;100.00
23261;BME280;11799;47.740;-3.390;2023-05-25T04:07:42;102279.13;;;12.40;100.00
23261;BME280;11799;47.740;-3.390;2023-05-25T04:10:07;102273.91;;;12.39;100.00
23261;BME280;11799;47.740;-3.390;2023-05-25T04:12:33;102279.31;;;12.37;100.00
23261;BME280;11799;47.740;-3.390;2023-05-25T04:14:58;102275.13;;;12.33;100.00
23261;BME280;11799;47.740;-3.390;2023-05-25T04:17:25;102271.44;;;12.36;100.00
23261;BME280;11799;47.740;-3.390;2023-05-25T04:19:51;102275.72;;;12.38;100.00
23261;BME280;11799;47.740;-3.390;2023-05-25T04:22:17;102278.34;;;12.38;100.00
23261;BME280;11799;47.740;-3.390;2023-05-25T04:24:45;102276.38;;;12.42;100.00
23261;BME280;11799;47.740;-3.390;2023-05-25T04:27:11;102284.13;;;12.45;100.00
23261;BME280;11799;47.740;-3.390;2023-05-25T04:29:39;102284.13;;;12.45;100.00
23261;BME280;11799;47.740;-3.390;2023-05-25T04:32:23;102284.03;;;12.46;100.00
23261;BME280;11799;47.740;-3.390;2023-05-25T04:35:14;102287.44;;;12.48;100.00
23261;BME280;11799;47.740;-3.390;2023-05-25T04:37:43;102287.44;;;12.48;100.00
23261;BME280;11799;47.740;-3.390;2023-05-25T04:40:09;102282.13;;;12.48;100.00
23261;BME280;11799;47.740;-3.390;2023-05-25T04:42:36;102276.75;;;12.50;100.00
23261;BME280;11799;47.740;-3.390;2023-05-25T04:45:06;102281.75;;;12.54;100.00
23261;BME280;11799;47.740;-3.390;2023-05-25T04:47:34;102280.91;;;12.54;100.00
23261;BME280;11799;47.740;-3.390;2023-05-25T04:49:59;102279.97;;;12.55;100.00
23261;BME280;11799;47.740;-3.390;2023-05-25T04:52:25;102272.84;;;12.55;100.00
23261;BME280;11799;47.740;-3.390;2023-05-25T04:54:51;102283.06;;;12.62;100.00
23261;BME280;11799;47.740;-3.390;2023-05-25T04:57:18;102287.44;;;12.63;100.00
23261;BME280;11799;47.740;-3.390;2023-05-25T04:59:44;102285.53;;;12.65;100.00
23261;BME280;11799;47.740;-3.390;2023-05-25T05:02:10;102285.53;;;12.65;100.00
23261;BME280;11799;47.740;-3.390;2023-05-25T05:04:36;102293.19;;;12.69;100.00
23261;BME280;11799;47.740;-3.390;2023-05-25T05:07:04;102290.31;;;12.72;100.00
23261;BME280;11799;47.740;-3.390;2023-05-25T05:09:31;102289.84;;;12.80;100.00
23261;BME280;11799;47.740;-3.390;2023-05-25T05:11:58;102302.91;;;12.83;100.00
23261;BME280;11799;47.740;-3.390;2023-05-25T05:14:24;102294.66;;;12.87;100.00
23261;BME280;11799;47.740;-3.390;2023-05-25T05:16:51;102298.81;;;12.92;100.00
23261;BME280;11799;47.740;-3.390;2023-05-25T05:19:16;102301.06;;;12.98;100.00
23261;BME280;11799;47.740;-3.390;2023-05-25T05:21:42;102293.66;;;13.03;100.00
23261;BME280;11799;47.740;-3.390;2023-05-25T05:24:08;102299.44;;;13.09;100.00
23261;BME280;11799;47.740;-3.390;2023-05-25T05:26:33;102295.72;;;13.12;100.00
23261;BME280;11799;47.740;-3.390;2023-05-25T05:28:59;102296.66;;;13.25;100.00
23261;BME280;11799;47.740;-3.390;2023-05-25T05:31:26;102295.94;;;13.36;100.00
23261;BME280;11799;47.740;-3.390;2023-05-25T05:33:53;102299.03;;;13.42;100.00
23261;BME280;11799;47.740;-3.390;2023-05-25T05:36:19;102302.97;;;13.49;100.00
23261;BME280;11799;47.740;-3.390;2023-05-25T05:38:44;102304.28;;;13.57;100.00
23261;BME280;11799;47.740;-3.390;2023-05-25T05:41:12;102298.56;;;13.63;100.00
23261;BME280;11799;47.740;-3.390;2023-05-25T05:43:40;102292.72;;;13.70;100.00
23261;BME280;11799;47.740;-3.390;2023-05-25T05:46:10;102301.97;;;13.77;100.00
23261;BME280;11799;47.740;-3.390;2023-05-25T05:48:38;102297.22;;;13.82;100.00
23261;BME280;11799;47.740;-3.390;2023-05-25T05:51:04;102309.94;;;13.90;100.00
23261;BME280;11799;47.740;-3.390;2023-05-25T05:53:31;102309.63;;;13.95;100.00
23261;BME280;11799;47.740;-3.390;2023-05-25T05:56:01;102309.84;;;14.04;100.00
23261;BME280;11799;47.740;-3.390;2023-05-25T05:58:28;102303.25;;;14.10;100.00
23261;BME280;11799;47.740;-3.390;2023-05-25T06:00:55;102308.06;;;14.17;100.00
23261;BME280;11799;47.740;-3.390;2023-05-25T06:03:22;102312.72;;;14.27;100.00
23261;BME280;11799;47.740;-3.390;2023-05-25T06:05:48;102310.59;;;14.32;100.00
23261;BME280;11799;47.740;-3.390;2023-05-25T06:08:13;102311.88;;;14.39;100.00
23261;BME280;11799;47.740;-3.390;2023-05-25T06:10:39;102311.34;;;14.46;100.00
23261;BME280;11799;47.740;-3.390;2023-05-25T06:13:06;102304.63;;;14.53;100.00
23261;BME280;11799;47.740;-3.390;2023-05-25T06:15:32;102299.63;;;14.62;100.00
23261;BME280;11799;47.740;-3.390;2023-05-25T06:18:00;102299.19;;;14.68;100.00
23261;BME280;11799;47.740;-3.390;2023-05-25T06:20:26;102296.94;;;14.74;100.00
23261;BME280;11799;47.740;-3.390;2023-05-25T06:22:51;102299.03;;;14.82;100.00
23261;BME280;11799;47.740;-3.390;2023-05-25T06:25:18;102296.78;;;14.89;100.00
23261;BME280;11799;47.740;-3.390;2023-05-25T06:27:45;102302.31;;;14.98;100.00
23261;BME280;11799;47.740;-3.390;2023-05-25T06:30:11;102302.66;;;15.05;100.00
23261;BME280;11799;47.740;-3.390;2023-05-25T06:32:37;102294.88;;;15.14;100.00
23261;BME280;11799;47.740;-3.390;2023-05-25T06:35:03;102283.88;;;15.19;100.00
23261;BME280;11799;47.740;-3.390;2023-05-25T06:37:30;102290.72;;;15.34;100.00
23261;BME280;11799;47.740;-3.390;2023-05-25T06:40:01;102300.47;;;15.46;100.00
23261;BME280;11799;47.740;-3.390;2023-05-25T06:42:27;102299.44;;;15.60;100.00
23261;BME280;11799;47.740;-3.390;2023-05-25T06:44:55;102291.88;;;15.78;100.00
23261;BME280;11799;47.740;-3.390;2023-05-25T06:47:20;102293.63;;;16.12;100.00
23261;BME280;11799;47.740;-3.390;2023-05-25T06:49:46;102294.59;;;16.56;100.00
23261;BME280;11799;47.740;-3.390;2023-05-25T06:52:11;102286.03;;;17.07;100.00
23261;BME280;11799;47.740;-3.390;2023-05-25T06:54:37;102296.25;;;17.66;100.00
23261;BME280;11799;47.740;-3.390;2023-05-25T06:57:02;102293.53;;;18.28;100.00
23261;BME280;11799;47.740;-3.390;2023-05-25T06:59:28;102285.72;;;18.86;100.00
23261;BME280;11799;47.740;-3.390;2023-05-25T07:01:53;102268.13;;;19.41;96.37
23261;BME280;11799;47.740;-3.390;2023-05-25T07:04:20;102277.19;;;20.06;87.66
23261;BME280;11799;47.740;-3.390;2023-05-25T07:06:46;102274.28;;;20.64;80.96
23261;BME280;11799;47.740;-3.390;2023-05-25T07:09:12;102277.34;;;21.15;76.32
23261;BME280;11799;47.740;-3.390;2023-05-25T07:11:38;102273.31;;;21.72;71.22
23261;BME280;11799;47.740;-3.390;2023-05-25T07:14:03;102272.91;;;22.11;59.53
23261;BME280;11799;47.740;-3.390;2023-05-25T07:16:29;102272.94;;;22.61;59.23
23261;BME280;11799;47.740;-3.390;2023-05-25T07:18:57;102270.41;;;23.10;53.51
23261;BME280;11799;47.740;-3.390;2023-05-25T07:21:22;102271.78;;;23.46;52.89
23261;BME280;11799;47.740;-3.390;2023-05-25T07:23:49;102272.44;;;23.81;51.24
23261;BME280;11799;47.740;-3.390;2023-05-25T07:26:14;102283.47;;;24.26;49.10
23261;BME280;11799;47.740;-3.390;2023-05-25T07:28:40;102270.88;;;24.58;48.53
23261;BME280;11799;47.740;-3.390;2023-05-25T07:31:07;102271.84;;;24.88;46.37
23261;BME280;11799;47.740;-3.390;2023-05-25T07:33:33;102265.66;;;25.10;44.62
23261;BME280;11799;47.740;-3.390;2023-05-25T07:35:58;102268.69;;;25.53;44.03
23261;BME280;11799;47.740;-3.390;2023-05-25T07:38:24;102269.53;;;25.76;42.85
23261;BME280;11799;47.740;-3.390;2023-05-25T07:40:49;102271.13;;;26.00;42.35
23261;BME280;11799;47.740;-3.390;2023-05-25T07:43:16;102274.47;;;26.17;41.12
23261;BME280;11799;47.740;-3.390;2023-05-25T07:45:42;102279.75;;;26.33;41.98
23261;BME280;11799;47.740;-3.390;2023-05-25T07:48:08;102269.31;;;26.66;41.30
23261;BME280;11799;47.740;-3.390;2023-05-25T07:50:33;102275.78;;;27.01;41.09
23261;BME280;11799;47.740;-3.390;2023-05-25T07:52:59;102272.38;;;27.14;39.43
23261;BME280;11799;47.740;-3.390;2023-05-25T07:55:25;102268.47;;;27.44;38.50
23261;BME280;11799;47.740;-3.390;2023-05-25T07:57:51;102267.81;;;27.64;38.58
23261;BME280;11799;47.740;-3.390;2023-05-25T08:00:17;102263.56;;;27.82;37.29
23261;BME280;11799;47.740;-3.390;2023-05-25T08:02:43;102263.50;;;28.04;38.03
23261;BME280;11799;47.740;-3.390;2023-05-25T08:05:09;102269.41;;;28.55;36.72
23261;BME280;11799;47.740;-3.390;2023-05-25T08:07:34;102263.25;;;28.94;36.31
23261;BME280;11799;47.740;-3.390;2023-05-25T08:10:00;102271.88;;;29.17;34.22
23261;BME280;11799;47.740;-3.390;2023-05-25T08:12:26;102266.47;;;29.50;34.73
23261;BME280;11799;47.740;-3.390;2023-05-25T08:14:52;102270.84;;;29.18;34.13
23261;BME280;11799;47.740;-3.390;2023-05-25T08:17:19;102271.75;;;28.65;33.92
23261;BME280;11799;47.740;-3.390;2023-05-25T08:19:45;102257.50;;;28.15;34.85
23261;BME280;11799;47.740;-3.390;2023-05-25T08:22:10;102262.66;;;27.69;36.00
23261;BME280;11799;47.740;-3.390;2023-05-25T08:24:36;102254.91;;;27.23;37.71
23261;BME280;11799;47.740;-3.390;2023-05-25T08:27:01;102257.13;;;26.77;37.78
23261;BME280;11799;47.740;-3.390;2023-05-25T08:29:27;102263.09;;;26.07;38.70
23261;BME280;11799;47.740;-3.390;2023-05-25T08:31:53;102257.28;;;25.65;40.52
23261;BME280;11799;47.740;-3.390;2023-05-25T08:34:18;102263.09;;;25.40;40.96
23261;BME280;11799;47.740;-3.390;2023-05-25T08:36:44;102256.78;;;24.93;41.12
23261;BME280;11799;47.740;-3.390;2023-05-25T08:39:10;102258.50;;;24.63;43.85
23261;BME280;11799;47.740;-3.390;2023-05-25T08:41:40;102263.34;;;24.37;44.46
23261;BME280;11799;47.740;-3.390;2023-05-25T08:44:05;102269.84;;;24.12;46.70
23261;BME280;11799;47.740;-3.390;2023-05-25T08:46:33;102261.53;;;23.66;44.98
23261;BME280;11799;47.740;-3.390;2023-05-25T08:49:12;102272.28;;;23.33;44.95
23261;BME280;11799;47.740;-3.390;2023-05-25T08:51:42;102282.69;;;23.04;47.59
23261;BME280;11799;47.740;-3.390;2023-05-25T08:54:12;102268.88;;;22.91;47.39
23261;BME280;11799;47.740;-3.390;2023-05-25T08:56:54;102275.44;;;22.88;49.02
23261;BME280;11799;47.740;-3.390;2023-05-25T09:02:28;102270.94;;;22.63;51.38
23261;BME280;11799;47.740;-3.390;2023-05-25T09:04:58;102266.88;;;22.51;52.29
23261;BME280;11799;47.740;-3.390;2023-05-25T09:07:27;102268.66;;;22.34;52.17
23261;BME280;11799;47.740;-3.390;2023-05-25T09:09:53;102263.06;;;22.27;53.35
23261;BME280;11799;47.740;-3.390;2023-05-25T09:12:21;102265.91;;;22.26;55.77
23261;BME280;11799;47.740;-3.390;2023-05-25T09:14:46;102268.19;;;22.13;54.40
23261;BME280;11799;47.740;-3.390;2023-05-25T09:17:16;102264.63;;;22.04;53.67
23261;BME280;11799;47.740;-3.390;2023-05-25T09:19:43;102262.50;;;21.90;55.51
23261;BME280;11799;47.740;-3.390;2023-05-25T09:22:08;102265.78;;;21.75;55.16
23261;BME280;11799;47.740;-3.390;2023-05-25T09:24:36;102268.72;;;21.64;55.96
23261;BME280;11799;47.740;-3.390;2023-05-25T09:27:04;102259.22;;;21.52;55.51
23261;BME280;11799;47.740;-3.390;2023-05-25T09:29:30;102263.34;;;21.47;54.60
23261;BME280;11799;47.740;-3.390;2023-05-25T09:31:56;102262.78;;;21.35;57.07
23261;BME280;11799;47.740;-3.390;2023-05-25T09:34:22;102253.19;;;21.32;56.33
23261;BME280;11799;47.740;-3.390;2023-05-25T09:36:47;102251.97;;;21.27;57.21
23261;BME280;11799;47.740;-3.390;2023-05-25T09:39:13;102254.38;;;21.20;57.77
23261;BME280;11799;47.740;-3.390;2023-05-25T09:41:42;102252.53;;;21.21;58.57
23261;BME280;11799;47.740;-3.390;2023-05-25T09:44:08;102251.63;;;21.12;59.64
23261;BME280;11799;47.740;-3.390;2023-05-25T09:46:34;102248.94;;;21.12;64.61
23261;BME280;11799;47.740;-3.390;2023-05-25T09:49:10;102238.16;;;21.22;64.14
23261;BME280;11799;47.740;-3.390;2023-05-25T09:51:35;102237.75;;;21.34;61.40
23261;BME280;11799;47.740;-3.390;2023-05-25T09:54:02;102243.13;;;21.34;60.65
23261;BME280;11799;47.740;-3.390;2023-05-25T09:56:31;102242.06;;;21.27;58.43
23261;BME280;11799;47.740;-3.390;2023-05-25T09:58:58;102276.41;;;21.06;56.84
23261;BME280;11799;47.740;-3.390;2023-05-25T10:01:23;102236.78;;;20.90;57.37
23261;BME280;11799;47.740;-3.390;2023-05-25T10:03:49;102254.50;;;20.83;58.10
23261;BME280;11799;47.740;-3.390;2023-05-25T10:06:22;102246.47;;;20.83;60.16
23261;BME280;11799;47.740;-3.390;2023-05-25T10:08:48;102241.25;;;20.82;54.84
23261;BME280;11799;47.740;-3.390;2023-05-25T10:11:14;102261.25;;;20.87;56.84
23261;BME280;11799;47.740;-3.390;2023-05-25T10:13:43;102232.13;;;20.92;56.58
23261;BME280;11799;47.740;-3.390;2023-05-25T10:16:09;102238.63;;;20.90;52.05
23261;BME280;11799;47.740;-3.390;2023-05-25T10:18:42;102242.72;;;20.94;51.43
23261;BME280;11799;47.740;-3.390;2023-05-25T10:21:09;102238.41;;;21.01;51.26
23261;BME280;11799;47.740;-3.390;2023-05-25T10:23:46;102242.88;;;21.10;52.25
23261;BME280;11799;47.740;-3.390;2023-05-25T10:26:18;102231.22;;;21.19;53.40
23261;BME280;11799;47.740;-3.390;2023-05-25T10:28:49;102239.00;;;21.22;49.04
23261;BME280;11799;47.740;-3.390;2023-05-25T10:31:16;102240.38;;;21.26;50.41
23261;BME280;11799;47.740;-3.390;2023-05-25T10:33:43;102243.28;;;21.33;50.24
23261;BME280;11799;47.740;-3.390;2023-05-25T10:36:10;102237.09;;;21.40;49.29
23261;BME280;11799;47.740;-3.390;2023-05-25T10:38:39;102242.53;;;21.49;52.34
23261;BME280;11799;47.740;-3.390;2023-05-25T10:41:05;102239.69;;;21.50;48.60
23261;BME280;11799;47.740;-3.390;2023-05-25T10:43:31;102235.63;;;21.46;47.08
23261;BME280;11799;47.740;-3.390;2023-05-25T10:45:57;102225.25;;;21.51;46.31
23261;BME280;11799;47.740;-3.390;2023-05-25T10:48:23;102229.47;;;21.54;47.20
23261;BME280;11799;47.740;-3.390;2023-05-25T10:50:59;102235.22;;;21.59;46.35
23261;BME280;11799;47.740;-3.390;2023-05-25T10:53:24;102227.38;;;21.65;45.53
23261;BME280;11799;47.740;-3.390;2023-05-25T10:58:17;102236.97;;;21.68;46.59
23261;BME280;11799;47.740;-3.390;2023-05-25T11:01:05;102220.31;;;21.64;45.27
23261;BME280;11799;47.740;-3.390;2023-05-25T11:06:23;102233.81;;;21.72;45.96
23261;BME280;11799;47.740;-3.390;2023-05-25T11:09:26;102210.88;;;21.86;45.13
23261;BME280;11799;47.740;-3.390;2023-05-25T11:17:14;102223.13;;;22.49;42.91
23261;BME280;11799;47.740;-3.390;2023-05-25T11:22:15;102218.50;;;22.83;42.08
23261;BME280;11799;47.740;-3.390;2023-05-25T11:24:43;102214.84;;;23.00;41.94
23261;BME280;11799;47.740;-3.390;2023-05-25T11:27:10;102217.88;;;23.05;41.84
23261;BME280;11799;47.740;-3.390;2023-05-25T11:29:36;102209.97;;;23.04;40.08
23261;BME280;11799;47.740;-3.390;2023-05-25T11:32:02;102208.78;;;22.98;41.51
23261;BME280;11799;47.740;-3.390;2023-05-25T11:34:30;102204.91;;;23.01;41.87
23261;BME280;11799;47.740;-3.390;2023-05-25T11:36:58;102222.06;;;23.00;40.75
23261;BME280;11799;47.740;-3.390;2023-05-25T11:39:27;102205.41;;;23.04;40.82
23261;BME280;11799;47.740;-3.390;2023-05-25T11:41:55;102211.28;;;23.16;41.29
23261;BME280;11799;47.740;-3.390;2023-05-25T11:44:29;102234.19;;;23.28;40.69
23261;BME280;11799;47.740;-3.390;2023-05-25T11:46:56;102203.19;;;23.32;39.92
23261;BME280;11799;47.740;-3.390;2023-05-25T11:49:22;102208.09;;;23.37;39.71
23261;BME280;11799;47.740;-3.390;2023-05-25T11:51:49;102200.84;;;23.46;40.36
23261;BME280;11799;47.740;-3.390;2023-05-25T11:54:27;102193.38;;;23.72;39.46
23261;BME280;11799;47.740;-3.390;2023-05-25T11:56:54;102207.16;;;23.93;38.16
23261;BME280;11799;47.740;-3.390;2023-05-25T11:59:26;102207.06;;;24.26;38.07
23261;BME280;11799;47.740;-3.390;2023-05-25T12:02:02;102202.19;;;24.52;37.23
23261;BME280;11799;47.740;-3.390;2023-05-25T12:04:29;102209.97;;;24.78;36.72
23261;BME280;11799;47.740;-3.390;2023-05-25T12:07:03;102201.59;;;24.96;36.19
23261;BME280;11799;47.740;-3.390;2023-05-25T12:09:30;102195.16;;;25.20;35.78
23261;BME280;11799;47.740;-3.390;2023-05-25T12:11:56;102201.81;;;25.47;35.66
23261;BME280;11799;47.740;-3.390;2023-05-25T12:14:22;102200.19;;;26.05;35.47
23261;BME280;11799;47.740;-3.390;2023-05-25T12:16:48;102189.31;;;26.49;35.36
23261;BME280;11799;47.740;-3.390;2023-05-25T12:19:15;102185.19;;;26.95;36.33
23261;BME280;11799;47.740;-3.390;2023-05-25T12:21:41;102207.72;;;27.17;34.23
23261;BME280;11799;47.740;-3.390;2023-05-25T12:24:09;102194.66;;;27.27;33.09
23261;BME280;11799;47.740;-3.390;2023-05-25T12:26:51;102186.69;;;27.47;33.68
23261;BME280;11799;47.740;-3.390;2023-05-25T12:29:22;102193.97;;;27.68;32.45
23261;BME280;11799;47.740;-3.390;2023-05-25T12:31:47;102209.44;;;27.46;32.66
23261;BME280;11799;47.740;-3.390;2023-05-25T12:34:14;102205.19;;;27.16;32.61
23261;BME280;11799;47.740;-3.390;2023-05-25T12:36:54;102197.28;;;27.42;33.76
23261;BME280;11799;47.740;-3.390;2023-05-25T12:42:04;102184.13;;;27.39;32.65
23261;BME280;11799;47.740;-3.390;2023-05-25T12:44:36;102190.22;;;27.20;33.04
23261;BME280;11799;47.740;-3.390;2023-05-25T12:49:38;102190.19;;;27.13;32.58
23261;BME280;11799;47.740;-3.390;2023-05-25T12:52:04;102178.94;;;26.95;32.51
23261;BME280;11799;47.740;-3.390;2023-05-25T12:54:34;102174.75;;;26.92;32.74
23261;BME280;11799;47.740;-3.390;2023-05-25T12:57:00;102186.81;;;26.69;33.08
23261;BME280;11799;47.740;-3.390;2023-05-25T12:59:31;102180.16;;;26.71;34.14
23261;BME280;11799;47.740;-3.390;2023-05-25T13:01:57;102178.41;;;26.85;34.45